sensor_id;sensor_type;location;lat;lon;timestamp;pressure;altitude;pressure_sealevel;temperature;humidity
16355;BME280;8287;51.644;8.494;2023-01-19T00:03:00;98904.75;;;3.43;74.35
16355;BME280;8287;51.644;8.494;2023-01-19T00:08:34;98922.31;;;3.29;74.51
16355;BME280;8287;51.644;8.494;2023-01-19T00:11:11;98921.66;;;3.37;74.37
16355;BME280;8287;51.644;8.494;2023-01-19T00:13:42;98926.69;;;3.34;74.85
16355;BME280;8287;51.644;8.494;2023-01-19T00:16:14;98916.09;;;3.39;74.27
16355;BME280;8287;51.644;8.494;2023-01-19T00:19:02;98921.94;;;3.36;74.05
16355;BME280;8287;51.644;8.494;2023-01-19T00:21:29;98928.44;;;3.25;74.63
16355;BME280;8287;51.644;8.494;2023-01-19T00:24:00;98928.81;;;3.18;74.92
16355;BME280;8287;51.644;8.494;2023-01-19T00:29:43;98928.03;;;3.31;74.57
16355;BME280;8287;51.644;8.494;2023-01-19T00:32:24;98930.06;;;3.21;74.65
16355;BME280;8287;51.644;8.494;2023-01-19T00:35:00;98921.72;;;3.19;74.99
16355;BME280;8287;51.644;8.494;2023-01-19T00:37:26;98932.41;;;3.22;74.86
16355;BME280;8287;51.644;8.494;2023-01-19T00:40:07;98938.69;;;3.21;75.24
16355;BME280;8287;51.644;8.494;2023-01-19T00:43:06;98927.94;;;3.23;75.08
16355;BME280;8287;51.644;8.494;2023-01-19T00:45:52;98928.50;;;3.20;75.06
16355;BME280;8287;51.644;8.494;2023-01-19T00:48:22;98933.25;;;3.18;75.30
16355;BME280;8287;51.644;8.494;2023-01-19T00:50:51;98940.44;;;3.26;75.20
16355;BME280;8287;51.644;8.494;2023-01-19T00:57:05;98931.25;;;3.28;75.29
16355;BME280;8287;51.644;8.494;2023-01-19T01:00:30;98932.13;;;3.24;75.99
16355;BME280;8287;51.644;8.494;2023-01-19T01:03:10;98930.94;;;3.30;75.91
16355;BME280;8287;51.644;8.494;2023-01-19T01:05:56;98922.41;;;3.24;76.14
16355;BME280;8287;51.644;8.494;2023-01-19T01:08:42;98920.09;;;3.23;75.99
16355;BME280;8287;51.644;8.494;2023-01-19T01:11:09;98914.66;;;3.33;75.95
16355;BME280;8287;51.644;8.494;2023-01-19T01:16:48;98921.53;;;3.29;76.21
16355;BME280;8287;51.644;8.494;2023-01-19T01:19:41;98919.59;;;3.34;75.97
16355;BME280;8287;51.644;8.494;2023-01-19T01:22:14;98923.97;;;3.39;76.36
16355;BME280;8287;51.644;8.494;2023-01-19T01:24:44;98922.00;;;3.31;76.55
16355;BME280;8287;51.644;8.494;2023-01-19T01:27:14;98930.56;;;3.36;76.36
16355;BME280;8287;51.644;8.494;2023-01-19T01:29:42;98933.94;;;3.37;76.48
16355;BME280;8287;51.644;8.494;2023-01-19T01:32:11;98932.50;;;3.44;76.45
16355;BME280;8287;51.644;8.494;2023-01-19T01:34:38;98933.28;;;3.45;76.57
16355;BME280;8287;51.644;8.494;2023-01-19T01:37:05;98945.28;;;3.46;76.46
16355;BME280;8287;51.644;8.494;2023-01-19T01:39:32;98941.03;;;3.50;76.60
16355;BME280;8287;51.644;8.494;2023-01-19T01:42:01;98935.00;;;3.49;76.51
16355;BME280;8287;51.644;8.494;2023-01-19T01:44:47;98950.16;;;3.52;76.57
16355;BME280;8287;51.644;8.494;2023-01-19T01:47:21;98932.88;;;3.38;77.08
16355;BME280;8287;51.644;8.494;2023-01-19T01:49:50;98944.22;;;3.47;77.17
16355;BME280;8287;51.644;8.494;2023-01-19T01:52:21;98931.03;;;3.52;77.06
16355;BME280;8287;51.644;8.494;2023-01-19T01:54:48;98926.47;;;3.57;76.90
16355;BME280;8287;51.644;8.494;2023-01-19T01:57:17;98922.13;;;3.53;77.00
16355;BME280;8287;51.644;8.494;2023-01-19T01:59:47;98921.44;;;3.61;76.33
16355;BME280;8287;51.644;8.494;2023-01-19T02:02:16;98926.47;;;3.57;76.46
16355;BME280;8287;51.644;8.494;2023-01-19T02:05:03;98941.63;;;3.60;76.49
16355;BME280;8287;51.644;8.494;2023-01-19T02:07:37;98937.16;;;3.61;76.37
16355;BME280;8287;51.644;8.494;2023-01-19T02:10:25;98940.84;;;3.60;77.05
16355;BME280;8287;51.644;8.494;2023-01-19T02:13:09;98920.38;;;3.62;76.38
16355;BME280;8287;51.644;8.494;2023-01-19T02:15:48;98925.59;;;3.62;76.79
16355;BME280;8287;51.644;8.494;2023-01-19T02:18:16;98921.72;;;3.59;76.88
16355;BME280;8287;51.644;8.494;2023-01-19T02:20:49;98920.84;;;3.64;76.57
16355;BME280;8287;51.644;8.494;2023-01-19T02:23:27;98932.91;;;3.65;76.79
16355;BME280;8287;51.644;8.494;2023-01-19T02:25:56;98924.44;;;3.68;76.73
16355;BME280;8287;51.644;8.494;2023-01-19T02:28:23;98916.59;;;3.68;76.30
16355;BME280;8287;51.644;8.494;2023-01-19T02:30:50;98913.09;;;3.59;77.02
16355;BME280;8287;51.644;8.494;2023-01-19T02:33:17;98922.78;;;3.72;76.44
16355;BME280;8287;51.644;8.494;2023-01-19T02:35:44;98921.22;;;3.71;76.49
16355;BME280;8287;51.644;8.494;2023-01-19T02:38:12;98927.44;;;3.75;76.36
16355;BME280;8287;51.644;8.494;2023-01-19T02:40:43;98932.78;;;3.70;76.35
16355;BME280;8287;51.644;8.494;2023-01-19T02:43:11;98940.03;;;3.73;76.59
16355;BME280;8287;51.644;8.494;2023-01-19T02:45:38;98938.88;;;3.65;76.98
16355;BME280;8287;51.644;8.494;2023-01-19T02:48:05;98936.94;;;3.71;76.83
16355;BME280;8287;51.644;8.494;2023-01-19T02:50:38;98937.09;;;3.88;76.34
16355;BME280;8287;51.644;8.494;2023-01-19T02:53:28;98938.13;;;3.78;76.49
16355;BME280;8287;51.644;8.494;2023-01-19T02:56:06;98938.41;;;3.77;76.53
16355;BME280;8287;51.644;8.494;2023-01-19T02:58:44;98935.38;;;3.83;76.71
16355;BME280;8287;51.644;8.494;2023-01-19T03:01:18;98938.97;;;3.87;76.63
16355;BME280;8287;51.644;8.494;2023-01-19T03:03:53;98940.63;;;3.83;76.48
16355;BME280;8287;51.644;8.494;2023-01-19T03:06:30;98932.19;;;3.86;76.34
16355;BME280;8287;51.644;8.494;2023-01-19T03:09:02;98926.75;;;3.83;76.67
16355;BME280;8287;51.644;8.494;2023-01-19T03:11:34;98923.63;;;3.81;76.88
16355;BME280;8287;51.644;8.494;2023-01-19T03:14:08;98923.34;;;3.82;76.63
16355;BME280;8287;51.644;8.494;2023-01-19T03:16:40;98921.13;;;3.76;76.56
16355;BME280;8287;51.644;8.494;2023-01-19T03:19:10;98912.88;;;3.82;76.37
16355;BME280;8287;51.644;8.494;2023-01-19T03:21:43;98911.22;;;3.73;76.03
16355;BME280;8287;51.644;8.494;2023-01-19T03:24:13;98918.69;;;3.79;76.34
16355;BME280;8287;51.644;8.494;2023-01-19T03:26:46;98912.88;;;3.82;76.46
16355;BME280;8287;51.644;8.494;2023-01-19T03:29:14;98914.59;;;3.87;76.12
16355;BME280;8287;51.644;8.494;2023-01-19T03:31:44;98907.81;;;3.86;76.05
16355;BME280;8287;51.644;8.494;2023-01-19T03:34:13;98908.59;;;3.73;76.04
16355;BME280;8287;51.644;8.494;2023-01-19T03:36:43;98905.50;;;3.71;76.37
16355;BME280;8287;51.644;8.494;2023-01-19T03:39:13;98916.47;;;3.73;76.16
16355;BME280;8287;51.644;8.494;2023-01-19T03:41:45;98916.16;;;3.88;75.75
16355;BME280;8287;51.644;8.494;2023-01-19T03:44:13;98918.00;;;3.87;75.74
16355;BME280;8287;51.644;8.494;2023-01-19T03:46:41;98918.78;;;3.88;75.63
16355;BME280;8287;51.644;8.494;2023-01-19T03:49:08;98907.59;;;3.96;75.85
16355;BME280;8287;51.644;8.494;2023-01-19T03:51:35;98913.31;;;3.98;75.74
16355;BME280;8287;51.644;8.494;2023-01-19T03:54:03;98902.81;;;3.98;75.58
16355;BME280;8287;51.644;8.494;2023-01-19T03:56:30;98905.56;;;3.93;75.67
16355;BME280;8287;51.644;8.494;2023-01-19T03:58:58;98912.66;;;3.92;75.23
16355;BME280;8287;51.644;8.494;2023-01-19T04:01:25;98911.75;;;3.97;75.29
16355;BME280;8287;51.644;8.494;2023-01-19T04:03:52;98906.75;;;3.87;75.52
16355;BME280;8287;51.644;8.494;2023-01-19T04:06:19;98908.00;;;3.89;75.16
16355;BME280;8287;51.644;8.494;2023-01-19T04:08:46;98909.38;;;3.87;75.46
16355;BME280;8287;51.644;8.494;2023-01-19T04:11:14;98915.69;;;3.86;75.09
16355;BME280;8287;51.644;8.494;2023-01-19T04:13:40;98907.81;;;3.86;75.31
16355;BME280;8287;51.644;8.494;2023-01-19T04:16:09;98909.97;;;3.84;75.39
16355;BME280;8287;51.644;8.494;2023-01-19T04:18:36;98907.44;;;3.79;75.48
16355;BME280;8287;51.644;8.494;2023-01-19T04:21:05;98912.50;;;3.75;75.76
16355;BME280;8287;51.644;8.494;2023-01-19T04:23:32;98905.50;;;3.71;75.54
16355;BME280;8287;51.644;8.494;2023-01-19T04:26:00;98902.19;;;3.79;75.62
16355;BME280;8287;51.644;8.494;2023-01-19T04:28:28;98909.50;;;3.82;75.37
16355;BME280;8287;51.644;8.494;2023-01-19T04:30:55;98905.69;;;3.88;75.38
16355;BME280;8287;51.644;8.494;2023-01-19T04:33:23;98902.31;;;3.74;75.33
16355;BME280;8287;51.644;8.494;2023-01-19T04:35:51;98905.69;;;3.74;75.33
16355;BME280;8287;51.644;8.494;2023-01-19T04:38:18;98905.88;;;3.78;75.20
16355;BME280;8287;51.644;8.494;2023-01-19T04:40:45;98904.66;;;3.62;76.04
16355;BME280;8287;51.644;8.494;2023-01-19T04:43:12;98913.28;;;3.76;75.70
16355;BME280;8287;51.644;8.494;2023-01-19T04:45:39;98895.03;;;3.71;76.04
16355;BME280;8287;51.644;8.494;2023-01-19T04:48:05;98906.50;;;3.75;75.97
16355;BME280;8287;51.644;8.494;2023-01-19T04:50:33;98905.88;;;3.78;75.82
16355;BME280;8287;51.644;8.494;2023-01-19T04:53:00;98901.13;;;3.80;76.37
16355;BME280;8287;51.644;8.494;2023-01-19T04:55:26;98895.69;;;3.76;76.20
16355;BME280;8287;51.644;8.494;2023-01-19T04:57:53;98895.88;;;3.80;76.06
16355;BME280;8287;51.644;8.494;2023-01-19T05:00:20;98890.28;;;3.86;76.03
16355;BME280;8287;51.644;8.494;2023-01-19T05:02:47;98896.16;;;3.92;75.89
16355;BME280;8287;51.644;8.494;2023-01-19T05:05:14;98888.59;;;3.90;75.26
16355;BME280;8287;51.644;8.494;2023-01-19T05:07:43;98893.16;;;3.85;75.53
16355;BME280;8287;51.644;8.494;2023-01-19T05:10:11;98892.56;;;3.88;75.95
16355;BME280;8287;51.644;8.494;2023-01-19T05:12:37;98892.00;;;3.91;75.55
16355;BME280;8287;51.644;8.494;2023-01-19T05:15:05;98888.59;;;3.90;75.98
16355;BME280;8287;51.644;8.494;2023-01-19T05:17:33;98890.63;;;3.93;76.00
16355;BME280;8287;51.644;8.494;2023-01-19T05:20:00;98895.09;;;3.93;75.98
16355;BME280;8287;51.644;8.494;2023-01-19T05:22:27;98889.84;;;3.93;75.95
16355;BME280;8287;51.644;8.494;2023-01-19T05:24:56;98889.25;;;3.96;75.91
16355;BME280;8287;51.644;8.494;2023-01-19T05:27:22;98898.09;;;4.00;76.17
16355;BME280;8287;51.644;8.494;2023-01-19T05:29:49;98894.81;;;3.94;76.34
16355;BME280;8287;51.644;8.494;2023-01-19T05:32:16;98893.31;;;4.02;76.03
16355;BME280;8287;51.644;8.494;2023-01-19T05:34:42;98897.50;;;4.03;75.94
16355;BME280;8287;51.644;8.494;2023-01-19T05:37:09;98899.03;;;4.04;76.28
16355;BME280;8287;51.644;8.494;2023-01-19T05:39:36;98890.09;;;4.05;76.00
16355;BME280;8287;51.644;8.494;2023-01-19T05:42:04;98892.91;;;4.08;76.00
16355;BME280;8287;51.644;8.494;2023-01-19T05:44:31;98899.50;;;4.06;75.97
16355;BME280;8287;51.644;8.494;2023-01-19T05:46:57;98893.56;;;4.14;76.16
16355;BME280;8287;51.644;8.494;2023-01-19T05:49:24;98896.31;;;4.09;76.07
16355;BME280;8287;51.644;8.494;2023-01-19T05:51:51;98894.16;;;4.11;75.96
16355;BME280;8287;51.644;8.494;2023-01-19T05:54:17;98883.06;;;4.14;76.03
16355;BME280;8287;51.644;8.494;2023-01-19T05:56:44;98887.47;;;4.05;76.31
16355;BME280;8287;51.644;8.494;2023-01-19T05:59:12;98898.28;;;4.03;76.05
16355;BME280;8287;51.644;8.494;2023-01-19T06:01:39;98886.91;;;4.08;76.33
16355;BME280;8287;51.644;8.494;2023-01-19T06:04:06;98889.41;;;4.13;75.94
16355;BME280;8287;51.644;8.494;2023-01-19T06:06:32;98889.72;;;4.11;76.34
16355;BME280;8287;51.644;8.494;2023-01-19T06:08:59;98888.31;;;4.14;75.92
16355;BME280;8287;51.644;8.494;2023-01-19T06:11:25;98887.28;;;4.15;76.13
16355;BME280;8287;51.644;8.494;2023-01-19T06:13:52;98882.50;;;4.17;75.92
16355;BME280;8287;51.644;8.494;2023-01-19T06:16:20;98892.38;;;4.20;75.81
16355;BME280;8287;51.644;8.494;2023-01-19T06:18:47;98898.09;;;4.22;76.12
16355;BME280;8287;51.644;8.494;2023-01-19T06:21:13;98902.69;;;4.16;75.68
16355;BME280;8287;51.644;8.494;2023-01-19T06:23:40;98915.69;;;4.21;76.79
16355;BME280;8287;51.644;8.494;2023-01-19T06:26:07;98914.34;;;4.10;78.44
16355;BME280;8287;51.644;8.494;2023-01-19T06:28:33;98919.53;;;4.02;79.81
16355;BME280;8287;51.644;8.494;2023-01-19T06:31:00;98914.03;;;3.76;81.10
16355;BME280;8287;51.644;8.494;2023-01-19T06:33:29;98917.19;;;3.65;83.24
16355;BME280;8287;51.644;8.494;2023-01-19T06:35:56;98917.53;;;3.72;83.40
16355;BME280;8287;51.644;8.494;2023-01-19T06:38:23;98911.22;;;3.73;83.44
16355;BME280;8287;51.644;8.494;2023-01-19T06:40:54;98920.94;;;3.72;83.55
16355;BME280;8287;51.644;8.494;2023-01-19T06:43:23;98915.03;;;3.67;84.72
16355;BME280;8287;51.644;8.494;2023-01-19T06:45:51;98922.97;;;3.62;84.92
16355;BME280;8287;51.644;8.494;2023-01-19T06:48:19;98922.22;;;3.61;85.25
16355;BME280;8287;51.644;8.494;2023-01-19T06:50:47;98935.19;;;3.66;84.96
16355;BME280;8287;51.644;8.494;2023-01-19T06:53:14;98922.59;;;3.55;85.69
16355;BME280;8287;51.644;8.494;2023-01-19T06:55:41;98907.56;;;3.47;86.33
16355;BME280;8287;51.644;8.494;2023-01-19T06:58:08;98919.78;;;3.51;85.82
16355;BME280;8287;51.644;8.494;2023-01-19T07:00:35;98915.53;;;3.55;85.76
16355;BME280;8287;51.644;8.494;2023-01-19T07:03:04;98920.38;;;3.48;86.59
16355;BME280;8287;51.644;8.494;2023-01-19T07:05:33;98925.53;;;3.40;86.98
16355;BME280;8287;51.644;8.494;2023-01-19T07:08:01;98930.75;;;3.53;86.53
16355;BME280;8287;51.644;8.494;2023-01-19T07:10:28;98921.03;;;3.54;86.26
16355;BME280;8287;51.644;8.494;2023-01-19T07:12:56;98919.69;;;3.56;86.26
16355;BME280;8287;51.644;8.494;2023-01-19T07:15:22;98923.09;;;3.57;86.42
16355;BME280;8287;51.644;8.494;2023-01-19T07:17:49;98925.13;;;3.60;86.60
16355;BME280;8287;51.644;8.494;2023-01-19T07:20:16;98925.91;;;3.60;86.42
16355;BME280;8287;51.644;8.494;2023-01-19T07:22:44;98932.59;;;3.53;86.84
16355;BME280;8287;51.644;8.494;2023-01-19T07:25:12;98931.91;;;3.61;86.73
16355;BME280;8287;51.644;8.494;2023-01-19T07:27:39;98946.66;;;3.43;87.00
16355;BME280;8287;51.644;8.494;2023-01-19T07:30:07;98950.50;;;3.19;88.71
16355;BME280;8287;51.644;8.494;2023-01-19T07:32:33;98948.22;;;3.44;88.26
16355;BME280;8287;51.644;8.494;2023-01-19T07:35:00;98954.00;;;3.55;87.62
16355;BME280;8287;51.644;8.494;2023-01-19T07:37:26;98956.75;;;3.50;87.62
16355;BME280;8287;51.644;8.494;2023-01-19T07:39:53;98960.81;;;3.56;86.93
16355;BME280;8287;51.644;8.494;2023-01-19T07:42:21;98967.31;;;3.45;87.74
16355;BME280;8287;51.644;8.494;2023-01-19T07:44:47;98970.41;;;3.47;87.89
16355;BME280;8287;51.644;8.494;2023-01-19T07:47:14;98970.59;;;3.37;88.06
16355;BME280;8287;51.644;8.494;2023-01-19T07:49:41;98976.69;;;3.32;88.98
16355;BME280;8287;51.644;8.494;2023-01-19T07:52:07;98975.75;;;3.42;88.64
16355;BME280;8287;51.644;8.494;2023-01-19T07:54:34;98978.25;;;3.47;88.33
16355;BME280;8287;51.644;8.494;2023-01-19T07:57:00;98982.06;;;3.54;88.01
16355;BME280;8287;51.644;8.494;2023-01-19T07:59:28;98983.09;;;3.26;88.35
16355;BME280;8287;51.644;8.494;2023-01-19T08:01:56;98981.38;;;3.35;88.94
16355;BME280;8287;51.644;8.494;2023-01-19T08:04:24;98988.44;;;3.48;88.37
16355;BME280;8287;51.644;8.494;2023-01-19T08:06:51;98981.94;;;3.46;88.63
16355;BME280;8287;51.644;8.494;2023-01-19T08:09:17;98993.66;;;3.35;89.21
16355;BME280;8287;51.644;8.494;2023-01-19T08:11:44;98993.75;;;3.43;89.23
16355;BME280;8287;51.644;8.494;2023-01-19T08:14:11;98991.84;;;3.49;88.92
16355;BME280;8287;51.644;8.494;2023-01-19T08:16:39;98993.00;;;3.56;88.45
16355;BME280;8287;51.644;8.494;2023-01-19T08:19:05;98997.78;;;3.68;87.58
16355;BME280;8287;51.644;8.494;2023-01-19T08:21:32;98999.59;;;3.54;88.29
16355;BME280;8287;51.644;8.494;2023-01-19T08:24:00;98993.81;;;3.57;88.85
16355;BME280;8287;51.644;8.494;2023-01-19T08:26:28;98997.38;;;3.61;88.34
16355;BME280;8287;51.644;8.494;2023-01-19T08:28:57;99003.47;;;3.56;88.18
16355;BME280;8287;51.644;8.494;2023-01-19T08:31:24;99005.91;;;3.53;88.95
16355;BME280;8287;51.644;8.494;2023-01-19T08:33:52;99004.28;;;3.57;88.52
16355;BME280;8287;51.644;8.494;2023-01-19T08:36:20;99002.31;;;3.49;89.09
16355;BME280;8287;51.644;8.494;2023-01-19T08:38:48;99005.31;;;3.42;89.59
16355;BME280;8287;51.644;8.494;2023-01-19T08:41:14;99007.66;;;3.57;89.34
16355;BME280;8287;51.644;8.494;2023-01-19T08:43:41;99015.72;;;3.61;88.60
16355;BME280;8287;51.644;8.494;2023-01-19T08:46:08;99023.38;;;3.57;88.50
16355;BME280;8287;51.644;8.494;2023-01-19T08:48:35;99018.75;;;3.22;90.14
16355;BME280;8287;51.644;8.494;2023-01-19T08:51:03;99013.53;;;3.22;91.05
16355;BME280;8287;51.644;8.494;2023-01-19T08:53:30;99026.63;;;3.36;90.30
16355;BME280;8287;51.644;8.494;2023-01-19T08:55:57;99029.91;;;3.28;90.59
16355;BME280;8287;51.644;8.494;2023-01-19T08:58:25;99023.19;;;3.22;90.75
16355;BME280;8287;51.644;8.494;2023-01-19T09:00:52;99039.50;;;3.19;91.44
16355;BME280;8287;51.644;8.494;2023-01-19T09:03:19;99038.09;;;3.08;92.22
16355;BME280;8287;51.644;8.494;2023-01-19T09:05:48;99040.84;;;3.16;91.90
16355;BME280;8287;51.644;8.494;2023-01-19T09:08:16;99041.38;;;3.32;91.21
16355;BME280;8287;51.644;8.494;2023-01-19T09:10:45;99046.72;;;3.40;90.44
16355;BME280;8287;51.644;8.494;2023-01-19T09:13:13;99056.41;;;3.40;90.19
16355;BME280;8287;51.644;8.494;2023-01-19T09:15:41;99055.72;;;3.34;90.38
16355;BME280;8287;51.644;8.494;2023-01-19T09:18:09;99057.84;;;3.32;90.57
16355;BME280;8287;51.644;8.494;2023-01-19T09:20:38;99045.91;;;3.26;90.93
16355;BME280;8287;51.644;8.494;2023-01-19T09:23:07;99060.84;;;3.26;91.28
16355;BME280;8287;51.644;8.494;2023-01-19T09:25:36;99052.72;;;3.27;91.64
16355;BME280;8287;51.644;8.494;2023-01-19T09:28:03;99065.59;;;3.24;91.79
16355;BME280;8287;51.644;8.494;2023-01-19T09:30:30;99067.22;;;3.20;92.23
16355;BME280;8287;51.644;8.494;2023-01-19T09:33:01;99065.06;;;3.22;92.25
16355;BME280;8287;51.644;8.494;2023-01-19T09:35:28;99058.38;;;3.16;92.08
16355;BME280;8287;51.644;8.494;2023-01-19T09:37:55;99063.78;;;3.06;92.76
16355;BME280;8287;51.644;8.494;2023-01-19T09:40:23;99076.19;;;3.14;93.10
16355;BME280;8287;51.644;8.494;2023-01-19T09:42:54;99073.78;;;3.17;92.55
16355;BME280;8287;51.644;8.494;2023-01-19T09:45:30;99088.31;;;3.10;92.83
16355;BME280;8287;51.644;8.494;2023-01-19T09:48:01;99107.59;;;3.14;93.11
16355;BME280;8287;51.644;8.494;2023-01-19T09:50:33;99114.09;;;3.16;93.24
16355;BME280;8287;51.644;8.494;2023-01-19T09:53:03;99110.63;;;3.21;92.90
16355;BME280;8287;51.644;8.494;2023-01-19T09:55:39;99112.91;;;3.27;92.91
16355;BME280;8287;51.644;8.494;2023-01-19T09:58:11;99120.75;;;3.27;93.07
16355;BME280;8287;51.644;8.494;2023-01-19T10:00:42;99130.06;;;3.33;93.11
16355;BME280;8287;51.644;8.494;2023-01-19T10:03:13;99130.84;;;3.34;93.13
16355;BME280;8287;51.644;8.494;2023-01-19T10:05:43;99133.47;;;3.34;93.02
16355;BME280;8287;51.644;8.494;2023-01-19T10:08:18;99142.66;;;3.31;93.45
16355;BME280;8287;51.644;8.494;2023-01-19T10:10:52;99148.91;;;3.35;93.35
16355;BME280;8287;51.644;8.494;2023-01-19T10:13:31;99153.94;;;3.32;93.52
16355;BME280;8287;51.644;8.494;2023-01-19T10:16:08;99151.59;;;3.30;93.34
16355;BME280;8287;51.644;8.494;2023-01-19T10:18:41;99164.31;;;3.37;93.10
16355;BME280;8287;51.644;8.494;2023-01-19T10:21:14;99165.09;;;3.37;93.29
16355;BME280;8287;51.644;8.494;2023-01-19T10:23:45;99165.38;;;3.36;93.20
16355;BME280;8287;51.644;8.494;2023-01-19T10:26:15;99157.03;;;3.34;93.10
16355;BME280;8287;51.644;8.494;2023-01-19T10:28:44;99165.00;;;3.42;93.06
16355;BME280;8287;51.644;8.494;2023-01-19T10:31:13;99158.78;;;3.38;93.46
16355;BME280;8287;51.644;8.494;2023-01-19T10:33:42;99168.81;;;3.50;93.05
16355;BME280;8287;51.644;8.494;2023-01-19T10:36:15;99167.81;;;3.46;93.16
16355;BME280;8287;51.644;8.494;2023-01-19T10:38:43;99170.16;;;3.47;93.18
16355;BME280;8287;51.644;8.494;2023-01-19T10:41:15;99171.94;;;3.52;93.10
16355;BME280;8287;51.644;8.494;2023-01-19T10:43:45;99171.44;;;3.50;93.02
16355;BME280;8287;51.644;8.494;2023-01-19T10:46:21;99190.06;;;3.48;93.09
16355;BME280;8287;51.644;8.494;2023-01-19T10:48:51;99183.47;;;3.51;92.74
16355;BME280;8287;51.644;8.494;2023-01-19T10:51:18;99183.97;;;3.34;92.72
16355;BME280;8287;51.644;8.494;2023-01-19T10:53:58;99182.19;;;3.30;92.52
16355;BME280;8287;51.644;8.494;2023-01-19T10:56:28;99191.06;;;3.34;92.50
16355;BME280;8287;51.644;8.494;2023-01-19T10:58:59;99193.25;;;3.27;92.82
16355;BME280;8287;51.644;8.494;2023-01-19T11:01:27;99186.94;;;3.28;92.84
16355;BME280;8287;51.644;8.494;2023-01-19T11:03:54;99197.41;;;3.28;92.74
16355;BME280;8287;51.644;8.494;2023-01-19T11:06:30;99196.72;;;3.22;93.69
16355;BME280;8287;51.644;8.494;2023-01-19T11:09:15;99196.13;;;3.25;93.48
16355;BME280;8287;51.644;8.494;2023-01-19T11:11:47;99192.69;;;3.30;93.60
16355;BME280;8287;51.644;8.494;2023-01-19T11:14:17;99194.44;;;3.34;93.60
16355;BME280;8287;51.644;8.494;2023-01-19T11:16:47;99198.28;;;3.42;93.65
16355;BME280;8287;51.644;8.494;2023-01-19T11:19:20;99196.06;;;3.49;93.45
16355;BME280;8287;51.644;8.494;2023-01-19T11:21:50;99205.19;;;3.51;93.67
16355;BME280;8287;51.644;8.494;2023-01-19T11:24:16;99202.97;;;3.58;93.48
16355;BME280;8287;51.644;8.494;2023-01-19T11:26:46;99209.06;;;3.54;93.95
16355;BME280;8287;51.644;8.494;2023-01-19T11:29:17;99208.59;;;3.52;94.03
16355;BME280;8287;51.644;8.494;2023-01-19T11:31:46;99199.59;;;3.58;93.99
16355;BME280;8287;51.644;8.494;2023-01-19T11:34:25;99200.09;;;3.60;94.06
16355;BME280;8287;51.644;8.494;2023-01-19T11:36:57;99206.28;;;3.64;94.14
16355;BME280;8287;51.644;8.494;2023-01-19T11:39:25;99214.34;;;3.67;93.90
16355;BME280;8287;51.644;8.494;2023-01-19T11:41:54;99221.88;;;3.74;94.03
16355;BME280;8287;51.644;8.494;2023-01-19T11:44:26;99218.25;;;3.70;94.29
16355;BME280;8287;51.644;8.494;2023-01-19T11:46:56;99214.56;;;3.71;94.25
16355;BME280;8287;51.644;8.494;2023-01-19T11:49:30;99226.03;;;3.75;94.08
16355;BME280;8287;51.644;8.494;2023-01-19T11:52:02;99228.94;;;3.73;94.33
16355;BME280;8287;51.644;8.494;2023-01-19T11:54:32;99234.00;;;3.83;94.08
16355;BME280;8287;51.644;8.494;2023-01-19T11:57:11;99242.09;;;3.87;94.32
16355;BME280;8287;51.644;8.494;2023-01-19T11:59:40;99236.28;;;3.90;93.66
16355;BME280;8287;51.644;8.494;2023-01-19T12:02:15;99243.78;;;3.96;93.93
16355;BME280;8287;51.644;8.494;2023-01-19T12:04:44;99245.59;;;3.96;93.71
16355;BME280;8287;51.644;8.494;2023-01-19T12:07:16;99239.81;;;3.99;93.19
16355;BME280;8287;51.644;8.494;2023-01-19T12:09:46;99246.09;;;3.98;93.25
16355;BME280;8287;51.644;8.494;2023-01-19T12:12:24;99247.78;;;4.07;93.40
16355;BME280;8287;51.644;8.494;2023-01-19T12:14:58;99250.53;;;4.16;93.21
16355;BME280;8287;51.644;8.494;2023-01-19T12:17:28;99242.47;;;4.12;93.37
16355;BME280;8287;51.644;8.494;2023-01-19T12:20:01;99234.28;;;4.14;93.05
16355;BME280;8287;51.644;8.494;2023-01-19T12:22:35;99246.16;;;4.25;93.02
16355;BME280;8287;51.644;8.494;2023-01-19T12:25:06;99242.69;;;4.29;92.93
16355;BME280;8287;51.644;8.494;2023-01-19T12:27:40;99245.19;;;4.34;92.59
16355;BME280;8287;51.644;8.494;2023-01-19T12:30:16;99238.00;;;4.40;92.40
16355;BME280;8287;51.644;8.494;2023-01-19T12:32:44;99238.13;;;4.48;92.29
16355;BME280;8287;51.644;8.494;2023-01-19T12:38:35;99240.75;;;4.62;92.15
16355;BME280;8287;51.644;8.494;2023-01-19T12:41:15;99229.69;;;4.65;91.57
16355;BME280;8287;51.644;8.494;2023-01-19T12:43:43;99235.13;;;4.68;91.63
16355;BME280;8287;51.644;8.494;2023-01-19T12:46:25;99241.25;;;4.64;91.11
16355;BME280;8287;51.644;8.494;2023-01-19T12:48:54;99256.50;;;4.62;91.02
16355;BME280;8287;51.644;8.494;2023-01-19T12:51:22;99257.50;;;4.66;90.59
16355;BME280;8287;51.644;8.494;2023-01-19T12:53:51;99263.78;;;4.65;90.82
16355;BME280;8287;51.644;8.494;2023-01-19T12:56:18;99253.59;;;4.63;90.71
16355;BME280;8287;51.644;8.494;2023-01-19T12:58:52;99252.25;;;4.66;90.30
16355;BME280;8287;51.644;8.494;2023-01-19T13:01:18;99257.50;;;4.66;90.68
16355;BME280;8287;51.644;8.494;2023-01-19T13:04:02;99251.16;;;4.67;90.42
16355;BME280;8287;51.644;8.494;2023-01-19T13:07:04;99262.16;;;4.69;90.44
16355;BME280;8287;51.644;8.494;2023-01-19T13:09:35;99268.94;;;4.70;90.20
16355;BME280;8287;51.644;8.494;2023-01-19T13:12:22;99282.53;;;4.72;90.34
16355;BME280;8287;51.644;8.494;2023-01-19T13:14:49;99272.25;;;4.75;90.06
16355;BME280;8287;51.644;8.494;2023-01-19T13:17:30;99277.50;;;4.62;90.02
16355;BME280;8287;51.644;8.494;2023-01-19T13:25:37;99278.94;;;4.54;89.83
16355;BME280;8287;51.644;8.494;2023-01-19T13:28:07;99277.97;;;4.64;89.72
16355;BME280;8287;51.644;8.494;2023-01-19T13:30:40;99276.41;;;4.63;89.61
16355;BME280;8287;51.644;8.494;2023-01-19T13:33:18;99279.91;;;4.72;89.46
16355;BME280;8287;51.644;8.494;2023-01-19T13:35:50;99287.72;;;4.77;89.55
16355;BME280;8287;51.644;8.494;2023-01-19T13:38:18;99307.22;;;4.71;89.33
16355;BME280;8287;51.644;8.494;2023-01-19T13:40:46;99296.34;;;4.64;89.16
16355;BME280;8287;51.644;8.494;2023-01-19T13:43:15;99298.19;;;4.63;89.12
16355;BME280;8287;51.644;8.494;2023-01-19T13:45:46;99304.13;;;4.69;88.81
16355;BME280;8287;51.644;8.494;2023-01-19T13:48:16;99307.03;;;4.67;89.10
16355;BME280;8287;51.644;8.494;2023-01-19T13:50:55;99307.41;;;4.61;88.91
16355;BME280;8287;51.644;8.494;2023-01-19T13:53:22;99308.38;;;4.65;89.04
16355;BME280;8287;51.644;8.494;2023-01-19T13:56:08;99306.81;;;4.64;89.26
16355;BME280;8287;51.644;8.494;2023-01-19T13:58:35;99306.34;;;4.62;88.89
16355;BME280;8287;51.644;8.494;2023-01-19T14:01:02;99312.28;;;4.67;88.73
16355;BME280;8287;51.644;8.494;2023-01-19T14:03:28;99315.22;;;4.66;88.71